Time;durP1;ratioP1;P1;durP2;ratioP2;P2;SDS_P1;SDS_P2;PMS_P1;PMS_P2;Temp;Humidity;BMP_temperature;BMP_pressure;BME280_temperature;BME280_humidity;BME280_pressure;Samples;Min_cycle;Max_cycle;Signal;HPM_P1;HPM_P2
2024/01/22 00:02:12;;;;;;;12.95;6.05;;;;;;;-9.51;69.00;101505.16;6277471;22;20472;-69
2024/01/22 00:04:38;;;;;;;13.88;6.22;;;;;;;-9.49;69.01;101505.22;6275963;22;20003;-69
2024/01/22 00:07:03;;;;;;;12.68;6.40;;;;;;;-9.53;68.79;101505.13;6276181;22;20030;-67
2024/01/22 00:09:29;;;;;;;12.27;6.30;;;;;;;-9.56;68.79;101498.97;6277658;22;20289;-68
2024/01/22 00:11:54;;;;;;;13.88;6.75;;;;;;;-9.60;68.87;101481.59;6277571;22;20081;-68
2024/01/22 00:14:20;;;;;;;13.38;6.55;;;;;;;-9.55;68.98;101487.78;6276911;22;19999;-69
2024/01/22 00:16:45;;;;;;;15.23;6.88;;;;;;;-9.57;69.19;101481.66;6276264;22;20094;-67
2024/01/22 00:19:11;;;;;;;13.98;7.60;;;;;;;-9.55;69.46;101480.00;6277013;22;20075;-68
2024/01/22 00:21:42;;;;;;;13.75;6.32;;;;;;;-9.54;69.61;101473.97;6276898;22;20042;-68
2024/01/22 00:24:08;;;;;;;14.70;7.13;;;;;;;-9.56;69.59;101473.91;6276627;22;19999;-68
2024/01/22 00:26:34;;;;;;;14.55;6.95;;;;;;;-9.48;69.68;101494.88;6276556;22;20044;-68
2024/01/22 00:28:59;;;;;;;15.02;6.93;;;;;;;-9.42;69.87;101487.25;6276591;22;20381;-66
2024/01/22 00:31:25;;;;;;;13.63;7.15;;;;;;;-9.37;69.83;101490.91;6276978;22;20136;-68
2024/01/22 00:33:50;;;;;;;17.77;6.88;;;;;;;-9.32;70.02;101485.81;6274848;22;20019;-68
2024/01/22 00:36:16;;;;;;;13.48;7.22;;;;;;;-9.37;69.62;101477.94;6276182;22;20166;-69
2024/01/22 00:38:42;;;;;;;14.60;6.90;;;;;;;-9.25;69.65;101487.75;6276430;22;20011;-67
2024/01/22 00:41:08;;;;;;;15.82;6.97;;;;;;;-9.48;69.60;101437.81;6276083;22;20008;-67
2024/01/22 00:43:34;;;;;;;13.82;6.40;;;;;;;-9.45;69.59;101437.06;6276524;22;20018;-69
2024/01/22 00:46:01;;;;;;;12.48;6.85;;;;;;;-9.11;69.54;101484.66;6275683;22;20087;-66
2024/01/22 00:48:27;;;;;;;12.52;6.22;;;;;;;-9.06;69.33;101480.44;6276677;22;20329;-67
2024/01/22 00:50:53;;;;;;;16.10;7.65;;;;;;;-8.98;69.27;101470.28;6275186;22;20413;-68
2024/01/22 00:53:18;;;;;;;14.95;7.45;;;;;;;-8.84;69.49;101468.03;6275792;22;20026;-68
2024/01/22 00:55:44;;;;;;;15.82;6.93;;;;;;;-8.73;69.55;101477.00;6274866;22;20014;-68
2024/01/22 00:58:09;;;;;;;16.50;6.90;;;;;;;-8.65;69.44;101485.84;6273458;22;20381;-67
2024/01/22 01:00:35;;;;;;;15.80;7.60;;;;;;;-8.50;69.12;101489.69;6274574;22;20008;-68
2024/01/22 01:03:00;;;;;;;15.73;7.53;;;;;;;-8.43;68.85;101486.34;6275586;22;20079;-68
2024/01/22 01:05:26;;;;;;;13.63;7.25;;;;;;;-8.36;68.80;101477.00;6274937;22;20319;-68
2024/01/22 01:07:51;;;;;;;14.30;6.88;;;;;;;-8.25;69.24;101475.50;6275777;22;20278;-68
2024/01/22 01:10:17;;;;;;;15.95;7.40;;;;;;;-8.14;69.18;101480.09;6275629;22;20065;-67
2024/01/22 01:12:42;;;;;;;13.35;6.80;;;;;;;-8.09;68.65;101484.53;6275459;22;20042;-67
2024/01/22 01:15:09;;;;;;;15.38;7.20;;;;;;;-8.01;68.29;101478.66;6274973;22;20011;-67
2024/01/22 01:17:35;;;;;;;14.68;6.70;;;;;;;-7.98;68.46;101482.19;6275957;22;20100;-68
2024/01/22 01:20:03;;;;;;;13.80;7.10;;;;;;;-7.97;68.03;101467.47;6274778;22;20027;-68
2024/01/22 01:22:30;;;;;;;13.10;6.80;;;;;;;-7.84;68.24;101492.03;6275454;22;20008;-67
2024/01/22 01:24:56;;;;;;;14.88;7.07;;;;;;;-7.86;68.11;101471.19;6276758;22;20008;-67
2024/01/22 01:27:22;;;;;;;11.65;6.43;;;;;;;-7.73;67.94;101469.72;6276265;22;20036;-67
2024/01/22 01:29:47;;;;;;;16.33;8.05;;;;;;;-7.83;68.03;101457.38;6274405;22;20385;-67
2024/01/22 01:32:13;;;;;;;14.35;7.32;;;;;;;-7.62;67.95;101477.75;6275831;22;20087;-67
2024/01/22 01:34:38;;;;;;;14.70;7.40;;;;;;;-7.55;68.08;101479.66;6275257;22;20006;-68
2024/01/22 01:37:04;;;;;;;16.20;7.85;;;;;;;-7.50;67.28;101484.94;6274916;22;19999;-67
2024/01/22 01:39:30;;;;;;;12.13;6.85;;;;;;;-7.40;67.79;101496.41;6249007;22;20010;-68
2024/01/22 01:41:56;;;;;;;14.68;7.60;;;;;;;-7.36;67.22;101486.09;6275893;22;20104;-67
2024/01/22 01:44:46;;;;;;;13.77;7.13;;;;;;;-7.28;66.91;101482.75;6274553;22;20073;-69
2024/01/22 01:47:12;;;;;;;14.85;7.80;;;;;;;-7.25;66.90;101480.22;6275064;22;19996;-68
2024/01/22 01:49:37;;;;;;;16.15;7.70;;;;;;;-7.51;67.00;101433.75;6275261;22;20007;-67
2024/01/22 01:52:03;;;;;;;15.93;7.70;;;;;;;-7.29;66.82;101460.19;6275405;22;20035;-66
2024/01/22 01:54:29;;;;;;;14.70;7.88;;;;;;;-7.17;66.66;101477.75;6276741;22;20068;-68
2024/01/22 01:56:55;;;;;;;14.10;7.03;;;;;;;-7.19;66.24;101477.75;6276125;22;20010;-67
2024/01/22 01:59:20;;;;;;;14.60;7.78;;;;;;;-7.27;66.37;101463.69;6275623;22;20042;-67
2024/01/22 02:01:46;;;;;;;16.60;7.82;;;;;;;-7.42;66.24;101433.06;6275063;22;20011;-68
2024/01/22 02:04:12;;;;;;;15.90;7.82;;;;;;;-7.17;66.65;101468.25;6275751;22;20004;-68
2024/01/22 02:06:37;;;;;;;20.45;8.57;;;;;;;-7.15;65.83;101474.34;6276358;22;20376;-67
2024/01/22 02:09:03;;;;;;;17.13;7.70;;;;;;;-7.24;65.60;101455.94;6275903;22;20057;-66
2024/01/22 02:11:29;;;;;;;16.55;7.85;;;;;;;-7.13;65.90;101479.56;6248580;22;20004;-68
2024/01/22 02:13:54;;;;;;;17.00;7.80;;;;;;;-7.22;65.86;101468.16;6275413;22;20077;-69
2024/01/22 02:16:21;;;;;;;18.02;8.77;;;;;;;-7.15;65.73;101479.56;6275881;22;20014;-68
2024/01/22 02:19:07;;;;;;;15.75;8.18;;;;;;;-7.15;65.84;101463.06;6274603;22;20003;-67
2024/01/22 02:21:32;;;;;;;16.17;8.38;;;;;;;-7.15;65.67;101474.34;6275860;22;20137;-66
2024/01/22 02:23:58;;;;;;;19.50;9.05;;;;;;;-7.14;65.44;101481.31;6274098;22;20041;-68
2024/01/22 02:26:23;;;;;;;19.08;8.32;;;;;;;-7.18;65.64;101463.88;6275357;22;20257;-69
2024/01/22 02:28:49;;;;;;;21.27;8.82;;;;;;;-7.09;65.43;101479.66;6275499;22;20337;-68
2024/01/22 02:31:15;;;;;;;17.52;7.78;;;;;;;-7.18;65.69;101469.09;6273999;22;20061;-68
2024/01/22 02:33:41;;;;;;;16.08;8.40;;;;;;;-7.13;65.46;101483.06;6274270;22;20381;-68
2024/01/22 02:36:06;;;;;;;18.38;8.88;;;;;;;-7.31;65.15;101448.88;6275225;22;20027;-69
2024/01/22 02:38:32;;;;;;;17.20;8.20;;;;;;;-7.43;65.57;101427.00;6274495;22;19999;-68
2024/01/22 02:40:58;;;;;;;17.40;8.68;;;;;;;-7.10;65.42;101482.25;6275545;22;20045;-67
2024/01/22 02:43:23;;;;;;;18.38;8.40;;;;;;;-7.12;65.47;101482.22;6275438;22;20012;-69
2024/01/22 02:45:49;;;;;;;14.45;7.95;;;;;;;-7.13;65.26;101483.06;6275311;22;20042;-68
2024/01/22 02:48:14;;;;;;;17.65;7.90;;;;;;;-7.10;65.23;101472.72;6276130;22;20003;-68
2024/01/22 02:50:40;;;;;;;14.48;7.97;;;;;;;-7.51;65.21;101411.22;6274177;22;20016;-67
2024/01/22 02:53:05;;;;;;;18.42;8.13;;;;;;;-7.13;65.30;101479.56;6275295;22;20075;-67
2024/01/22 02:55:31;;;;;;;17.15;8.02;;;;;;;-7.13;65.29;101467.44;6275926;22;20046;-68
2024/01/22 02:57:56;;;;;;;16.85;7.65;;;;;;;-7.11;65.51;101476.16;6275506;22;20354;-67
2024/01/22 03:00:22;;;;;;;17.25;7.95;;;;;;;-7.07;65.60;101471.91;6275472;22;20011;-67
2024/01/22 03:02:47;;;;;;;19.00;8.18;;;;;;;-7.08;65.67;101471.00;6277615;22;20011;-68
2024/01/22 03:05:13;;;;;;;16.75;8.35;;;;;;;-7.01;65.96;101471.13;6277679;22;20396;-67
2024/01/22 03:07:38;;;;;;;15.10;7.90;;;;;;;-7.00;65.55;101467.66;6277218;22;20130;-68
2024/01/22 03:10:04;;;;;;;19.05;8.63;;;;;;;-6.97;65.34;101472.94;6276846;22;20000;-67
2024/01/22 03:12:30;;;;;;;16.27;8.25;;;;;;;-6.96;65.45;101474.69;6278099;22;20008;-67
2024/01/22 03:14:55;;;;;;;15.95;7.88;;;;;;;-6.95;65.32;101473.84;6277844;22;20004;-68
2024/01/22 03:17:21;;;;;;;16.38;7.85;;;;;;;-6.94;65.12;101463.44;6275786;22;20003;-67
2024/01/22 03:19:46;;;;;;;15.15;7.65;;;;;;;-6.97;65.57;101467.75;6277419;22;20006;-67
2024/01/22 03:22:12;;;;;;;19.52;8.85;;;;;;;-6.92;65.52;101473.91;6276172;22;19999;-67
2024/01/22 03:24:37;;;;;;;17.40;7.88;;;;;;;-6.93;65.47;101472.16;6277566;22;20014;-64
2024/01/22 03:27:03;;;;;;;20.75;8.52;;;;;;;-6.89;65.19;101475.66;6277023;22;20297;-68
2024/01/22 03:29:29;;;;;;;17.83;7.95;;;;;;;-6.93;65.43;101472.16;6277505;22;20031;-67
2024/01/22 03:31:54;;;;;;;18.58;8.55;;;;;;;-6.91;65.59;101467.84;6276635;22;20004;-67
2024/01/22 03:34:20;;;;;;;17.80;7.68;;;;;;;-6.87;65.58;101472.25;6277180;22;20033;-68
2024/01/22 03:36:46;;;;;;;20.42;7.70;;;;;;;-6.86;65.58;101475.75;6275484;22;20012;-69
2024/01/22 03:39:11;;;;;;;18.40;8.65;;;;;;;-6.82;65.73;101472.34;6275973;22;20007;-67
2024/01/22 03:41:37;;;;;;;13.95;7.25;;;;;;;-6.77;65.96;101466.34;6277574;22;20004;-68
2024/01/22 03:44:04;;;;;;;17.13;8.00;;;;;;;-6.81;65.37;101455.88;6250699;22;20434;-68
2024/01/22 03:46:30;;;;;;;15.05;7.40;;;;;;;-7.04;65.31;101413.78;6275780;22;20043;-68
2024/01/22 03:48:58;;;;;;;19.08;9.23;;;;;;;-6.74;65.58;101462.06;6276939;22;20839;-68
2024/01/22 03:51:23;;;;;;;17.67;8.18;;;;;;;-6.73;65.76;101472.50;6277445;22;20031;-68
2024/01/22 03:53:49;;;;;;;21.35;7.85;;;;;;;-6.67;65.41;101492.56;6277198;22;20042;-67
2024/01/22 03:56:14;;;;;;;15.52;7.93;;;;;;;-6.69;65.68;101479.50;6276724;22;20083;-68
2024/01/22 03:58:40;;;;;;;17.02;7.57;;;;;;;-7.02;65.93;101418.19;6276864;22;20292;-66
2024/01/22 04:01:05;;;;;;;18.23;7.90;;;;;;;-6.64;65.98;101482.19;6276553;22;20141;-68
2024/01/22 04:03:31;;;;;;;14.88;7.28;;;;;;;-6.66;65.89;101476.94;6277389;22;20046;-67
2024/01/22 04:05:57;;;;;;;17.88;7.82;;;;;;;-6.96;66.17;101430.44;6276507;22;20110;-67
2024/01/22 04:08:23;;;;;;;17.13;7.75;;;;;;;-6.58;65.83;101492.72;6275683;22;20035;-68
2024/01/22 04:10:48;;;;;;;13.70;7.45;;;;;;;-6.54;66.11;101484.09;6277501;22;20000;-67
2024/01/22 04:13:13;;;;;;;19.70;7.65;;;;;;;-6.65;66.00;101462.22;6276584;22;20401;-67
2024/01/22 04:15:39;;;;;;;18.55;7.93;;;;;;;-6.50;66.06;101485.03;6276710;22;19999;-69
2024/01/22 04:18:06;;;;;;;18.20;8.48;;;;;;;-6.50;65.64;101480.72;6275342;22;20018;-67
2024/01/22 04:20:32;;;;;;;18.20;7.78;;;;;;;-6.52;66.12;101478.91;6276675;22;20086;-68
2024/01/22 04:22:57;;;;;;;15.93;8.00;;;;;;;-6.43;66.21;101484.28;6276559;22;20348;-67
2024/01/22 04:25:23;;;;;;;18.05;8.25;;;;;;;-6.41;66.08;101484.31;6274926;22;20008;-68
2024/01/22 04:27:48;;;;;;;16.80;7.78;;;;;;;-6.43;65.92;101468.63;6275188;22;20003;-68
2024/01/22 04:30:14;;;;;;;19.73;8.32;;;;;;;-6.39;65.88;101466.97;6275478;22;20010;-67
2024/01/22 04:32:39;;;;;;;16.25;8.27;;;;;;;-6.39;65.63;101462.66;6276849;22;20285;-68
2024/01/22 04:35:05;;;;;;;16.27;8.10;;;;;;;-6.39;65.28;101453.94;6276719;22;20019;-68
2024/01/22 04:37:31;;;;;;;16.30;8.00;;;;;;;-6.42;65.05;101452.16;6275771;22;20015;-70
2024/01/22 04:40:14;;;;;;;16.75;7.68;;;;;;;-6.32;64.95;101460.97;6275659;22;19999;-68
2024/01/22 04:42:44;;;;;;;16.55;7.80;;;;;;;-6.39;65.25;101466.97;6276756;22;20012;-68
2024/01/22 04:45:09;;;;;;;17.55;8.20;;;;;;;-6.46;64.98;101465.97;6277307;22;20452;-68
2024/01/22 04:47:35;;;;;;;16.67;8.25;;;;;;;-6.50;65.06;101465.09;6276141;22;20019;-68
2024/01/22 04:50:01;;;;;;;18.65;8.38;;;;;;;-6.50;65.26;101470.28;6275940;22;20837;-68
2024/01/22 04:52:30;;;;;;;19.00;8.77;;;;;;;-6.72;65.61;101422.16;6276682;22;20146;-68
2024/01/22 04:54:55;;;;;;;15.18;8.13;;;;;;;-6.42;65.44;101469.53;6276326;22;20424;-69
2024/01/22 04:57:21;;;;;;;17.05;8.40;;;;;;;-6.47;65.01;101459.03;6276191;22;20004;-70
2024/01/22 04:59:46;;;;;;;16.67;8.05;;;;;;;-6.43;64.51;101463.44;6276161;22;20016;-68
2024/01/22 05:02:12;;;;;;;21.23;8.45;;;;;;;-6.45;65.11;101459.06;6274671;22;20090;-67
2024/01/22 05:04:37;;;;;;;18.50;8.05;;;;;;;-6.40;64.18;101470.44;6275562;22;20020;-67
2024/01/22 05:07:03;;;;;;;15.85;7.60;;;;;;;-6.41;64.59;101458.25;6275944;22;20003;-68
2024/01/22 05:09:28;;;;;;;14.13;7.45;;;;;;;-6.65;64.18;101407.50;6276675;22;20008;-68
2024/01/22 05:11:54;;;;;;;16.13;7.78;;;;;;;-6.38;64.43;101447.88;6275688;22;20400;-68
2024/01/22 05:14:19;;;;;;;16.35;7.55;;;;;;;-6.38;63.92;101447.88;6276312;22;20003;-68
2024/01/22 05:16:45;;;;;;;20.40;9.27;;;;;;;-6.34;63.96;101444.44;6276885;22;20007;-68
2024/01/22 05:19:10;;;;;;;17.95;8.60;;;;;;;-6.40;64.41;101431.34;6276986;22;20004;-68
2024/01/22 05:21:36;;;;;;;18.30;7.70;;;;;;;-6.40;64.03;101428.72;6275056;22;20293;-68
2024/01/22 05:24:01;;;;;;;17.60;7.80;;;;;;;-6.30;64.10;101441.03;6275889;22;20015;-65
2024/01/22 05:26:26;;;;;;;16.42;8.45;;;;;;;-6.34;63.74;101441.84;6272593;22;20022;-67
2024/01/22 05:28:52;;;;;;;16.88;7.88;;;;;;;-6.28;64.01;101438.47;6275182;22;20007;-63
2024/01/22 05:31:18;;;;;;;19.13;8.48;;;;;;;-6.26;63.61;101439.34;6274771;22;20004;-64
2024/01/22 05:33:43;;;;;;;18.17;8.07;;;;;;;-6.25;63.47;101444.59;6275589;22;20011;-67
2024/01/22 05:36:09;;;;;;;17.27;7.90;;;;;;;-6.18;62.90;101449.91;6276181;22;20004;-65
2024/01/22 05:38:41;;;;;;;16.60;7.75;;;;;;;-6.15;63.39;101444.72;6276115;22;20035;-65
2024/01/22 05:41:06;;;;;;;17.60;8.18;;;;;;;-6.15;63.05;101439.53;6274310;22;20008;-64
2024/01/22 05:43:32;;;;;;;12.90;7.05;;;;;;;-6.18;62.46;101439.47;6275449;22;20038;-64
2024/01/22 05:45:57;;;;;;;14.60;6.55;;;;;;;-6.10;62.14;101443.06;6276073;22;20485;-64
2024/01/22 05:48:23;;;;;;;17.05;7.55;;;;;;;-6.08;61.57;101436.13;6276207;22;20090;-65
2024/01/22 05:50:49;;;;;;;14.43;6.70;;;;;;;-6.08;61.71;101443.97;6274533;22;20000;-67
2024/01/22 05:53:15;;;;;;;16.33;7.07;;;;;;;-6.06;61.66;101437.91;6275893;22;20010;-64
2024/01/22 05:55:41;;;;;;;14.70;7.50;;;;;;;-6.15;61.38;101431.69;6276678;22;20003;-63
2024/01/22 05:58:06;;;;;;;17.10;6.93;;;;;;;-5.99;61.49;101440.56;6275816;22;20012;-65
2024/01/22 06:00:32;;;;;;;17.02;7.60;;;;;;;-6.06;61.31;101430.09;6273843;22;20312;-64
2024/01/22 06:02:59;;;;;;;17.25;7.00;;;;;;;-5.95;61.12;101445.84;6275448;22;20067;-64
2024/01/22 06:05:25;;;;;;;14.85;7.38;;;;;;;-5.93;61.03;101433.72;6275700;22;20057;-64
2024/01/22 06:07:50;;;;;;;12.95;6.95;;;;;;;-6.10;61.08;101401.34;6274513;22;20007;-64
2024/01/22 06:10:16;;;;;;;15.05;7.75;;;;;;;-6.08;60.14;101395.31;6274929;22;19999;-64
2024/01/22 06:12:42;;;;;;;14.65;7.00;;;;;;;-5.76;60.54;101449.59;6275722;22;20031;-65
2024/01/22 06:15:07;;;;;;;15.18;6.90;;;;;;;-5.71;60.39;101444.44;6274642;22;20409;-64
2024/01/22 06:17:33;;;;;;;15.73;6.28;;;;;;;-5.58;60.58;101439.34;6273659;22;20031;-64
2024/01/22 06:20:00;;;;;;;14.18;6.25;;;;;;;-5.47;60.15;101461.25;6275509;22;20007;-64
2024/01/22 06:22:29;;;;;;;14.63;6.15;;;;;;;-5.34;59.21;101449.22;6274960;22;20092;-65
2024/01/22 06:24:54;;;;;;;12.57;6.00;;;;;;;-5.37;58.90;101447.44;6275116;22;20008;-64
2024/01/22 06:27:21;;;;;;;14.13;6.20;;;;;;;-5.26;59.22;101454.53;6274657;22;20033;-63
2024/01/22 06:29:47;;;;;;;17.67;7.28;;;;;;;-5.21;58.78;101460.66;6274249;22;20014;-66
2024/01/22 06:32:12;;;;;;;14.18;6.40;;;;;;;-5.11;58.59;101462.50;6273818;22;20389;-62
2024/01/22 06:34:38;;;;;;;16.00;6.60;;;;;;;-5.04;59.21;101455.63;6273551;22;20031;-64
2024/01/22 06:37:04;;;;;;;13.45;6.07;;;;;;;-4.95;58.18;101454.84;6273590;22;20250;-65
2024/01/22 06:39:30;;;;;;;13.55;6.28;;;;;;;-4.94;58.01;101447.03;6273561;22;20000;-64
2024/01/22 06:41:56;;;;;;;20.88;8.20;;;;;;;-4.93;58.18;101453.13;6272058;22;20023;-64
2024/01/22 06:44:22;;;;;;;12.63;6.63;;;;;;;-4.83;57.83;101462.78;6274574;22;20054;-64
2024/01/22 06:46:47;;;;;;;15.05;6.78;;;;;;;-4.72;57.34;101467.25;6276050;22;20058;-65
2024/01/22 06:49:13;;;;;;;20.52;7.50;;;;;;;-4.65;57.53;101471.66;6275289;22;20012;-64
2024/01/22 06:51:39;;;;;;;13.90;6.50;;;;;;;-4.83;56.90;101420.13;6274903;22;20011;-64
2024/01/22 06:54:04;;;;;;;17.00;6.80;;;;;;;-4.48;57.08;101475.31;6275628;22;20308;-63
2024/01/22 06:56:30;;;;;;;15.18;6.78;;;;;;;-4.47;56.83;101458.75;6274251;22;20064;-62
2024/01/22 06:58:56;;;;;;;12.55;5.55;;;;;;;-4.35;56.11;101475.38;6275800;22;20400;-65
2024/01/22 07:01:21;;;;;;;13.90;6.57;;;;;;;-4.29;56.84;101482.41;6275930;22;20472;-65
2024/01/22 07:03:47;;;;;;;14.25;6.07;;;;;;;-4.23;56.30;101482.44;6275504;22;20075;-64
2024/01/22 07:06:12;;;;;;;19.75;7.20;;;;;;;-4.14;55.74;101481.63;6275656;22;20296;-64
2024/01/22 07:08:38;;;;;;;15.15;7.47;;;;;;;-3.99;56.12;101479.13;6269293;22;20106;-64
2024/01/22 07:11:05;;;;;;;18.05;7.80;;;;;;;-3.91;56.15;101481.81;6274145;22;20293;-64
2024/01/22 07:13:32;;;;;;;16.70;7.32;;;;;;;-3.87;55.97;101495.75;6271265;22;20014;-65
2024/01/22 07:16:00;;;;;;;14.68;6.63;;;;;;;-3.87;55.30;101478.34;6274105;22;20003;-64
2024/01/22 07:18:26;;;;;;;16.17;6.75;;;;;;;-3.80;55.50;101482.72;6273331;22;20065;-64
2024/01/22 07:20:53;;;;;;;15.25;6.78;;;;;;;-4.20;54.59;101396.19;6275321;22;20000;-63
2024/01/22 07:23:19;;;;;;;14.35;6.53;;;;;;;-3.75;54.55;101480.16;6274923;22;20031;-65
2024/01/22 07:25:44;;;;;;;15.60;6.75;;;;;;;-3.66;54.90;101466.22;6275297;22;20091;-63
2024/01/22 07:28:10;;;;;;;17.83;7.97;;;;;;;-3.53;54.55;101480.25;6274850;22;20014;-64
2024/01/22 07:30:37;;;;;;;18.50;7.63;;;;;;;-3.51;54.76;101479.38;6274994;22;20019;-65
2024/01/22 07:33:03;;;;;;;20.65;9.13;;;;;;;-3.41;54.56;101487.28;6269644;22;19996;-68
2024/01/22 07:35:29;;;;;;;21.25;8.18;;;;;;;-3.40;54.84;101474.19;6273280;22;20408;-73
2024/01/22 07:37:55;;;;;;;18.08;7.57;;;;;;;-3.21;54.31;101484.72;6273369;22;20050;-66
2024/01/22 07:40:21;;;;;;;18.30;7.95;;;;;;;-3.15;54.84;101482.13;6273784;22;20023;-63
2024/01/22 07:42:48;;;;;;;17.75;8.07;;;;;;;-3.10;54.51;101461.19;6275608;22;20012;-72
2024/01/22 07:45:14;;;;;;;18.50;8.20;;;;;;;-2.99;53.70;101469.97;6274500;22;20015;-72
2024/01/22 07:47:40;;;;;;;15.43;7.82;;;;;;;-2.92;54.09;101453.38;6275060;22;20685;-69
2024/01/22 07:50:06;;;;;;;14.88;7.90;;;;;;;-2.96;53.76;101437.63;6276697;22;20404;-70
2024/01/22 07:52:35;;;;;;;15.82;7.65;;;;;;;-2.82;52.99;101442.88;6276355;22;20285;-69
2024/01/22 07:55:02;;;;;;;18.85;7.90;;;;;;;-2.63;53.63;101449.88;6275537;22;20006;-72
2024/01/22 07:57:31;;;;;;;15.07;7.40;;;;;;;-2.54;53.24;101449.03;6275146;22;20004;-67
2024/01/22 07:59:57;;;;;;;19.58;8.05;;;;;;;-2.55;53.23;101425.41;6275838;22;20004;-70
2024/01/22 08:02:22;;;;;;;18.00;8.15;;;;;;;-2.47;53.08;101447.28;6276822;22;19996;-66
2024/01/22 08:04:50;;;;;;;16.23;8.05;;;;;;;-2.50;53.05;101434.16;6276579;22;20035;-68
2024/01/22 08:07:17;;;;;;;20.55;8.73;;;;;;;-2.50;52.90;101423.69;6276022;22;20014;-68
2024/01/22 08:09:42;;;;;;;21.52;8.32;;;;;;;-2.49;52.63;101430.66;6274847;22;20019;-69
2024/01/22 08:12:08;;;;;;;16.30;8.02;;;;;;;-2.49;52.60;101425.41;6276482;22;20007;-69
2024/01/22 08:14:33;;;;;;;20.52;8.18;;;;;;;-2.55;52.51;101436.78;6276619;22;20000;-65
2024/01/22 08:17:01;;;;;;;16.85;7.78;;;;;;;-2.47;52.67;101437.63;6275164;22;20078;-66
2024/01/22 08:19:27;;;;;;;19.02;8.38;;;;;;;-2.56;53.38;101449.88;6275761;22;19999;-66
2024/01/22 08:21:53;;;;;;;19.77;8.13;;;;;;;-2.66;53.88;101428.03;6276124;22;20000;-67
2024/01/22 08:24:19;;;;;;;23.00;8.93;;;;;;;-2.60;54.09;101418.41;6274711;22;20057;-70
2024/01/22 08:26:45;;;;;;;17.08;8.15;;;;;;;-2.31;53.24;101429.78;6275751;22;20000;-70
2024/01/22 08:29:11;;;;;;;20.25;8.40;;;;;;;-2.13;52.58;101433.25;6274667;22;20014;-71
2024/01/22 08:31:38;;;;;;;19.58;8.73;;;;;;;-1.94;52.58;101432.28;6275591;22;20360;-69
2024/01/22 08:34:03;;;;;;;15.35;6.93;;;;;;;-1.76;51.93;101405.13;6276058;22;20079;-69
2024/01/22 08:36:29;;;;;;;22.67;8.43;;;;;;;-1.76;51.96;101413.00;6275724;22;20031;-71
2024/01/22 08:38:54;;;;;;;16.42;7.45;;;;;;;-1.67;51.86;101395.47;6275318;22;20008;-67
2024/01/22 08:41:23;;;;;;;17.60;7.47;;;;;;;-1.51;51.17;101397.13;6276312;22;20300;-69
2024/01/22 08:43:48;;;;;;;14.50;6.82;;;;;;;-1.60;51.22;101387.53;6276280;22;20019;-67
2024/01/22 08:46:14;;;;;;;16.02;8.00;;;;;;;-1.60;52.13;101400.69;6275827;22;20011;-69
2024/01/22 08:48:39;;;;;;;17.40;7.57;;;;;;;-1.69;51.81;101403.31;6274208;22;20004;-69
2024/01/22 08:51:05;;;;;;;15.77;7.00;;;;;;;-1.57;51.94;101412.91;6275057;22;20015;-68
2024/01/22 08:53:30;;;;;;;14.20;7.20;;;;;;;-1.82;51.18;101357.00;6274688;22;20011;-69
2024/01/22 08:55:56;;;;;;;13.38;7.13;;;;;;;-1.65;51.78;101397.22;6275954;22;20069;-69
2024/01/22 08:58:22;;;;;;;13.80;6.97;;;;;;;-1.56;51.13;101390.16;6276443;22;20077;-70
2024/01/22 09:00:47;;;;;;;15.10;6.93;;;;;;;-1.77;50.84;101342.09;6276295;22;20003;-69
2024/01/22 09:03:13;;;;;;;13.73;6.53;;;;;;;-1.54;50.94;101396.28;6275925;22;20079;-70
2024/01/22 09:08:42;;;;;;;11.85;6.85;;;;;;;-1.56;51.22;101383.16;6275753;22;20492;-67
2024/01/22 09:11:08;;;;;;;14.32;6.63;;;;;;;-1.63;51.21;101392.81;6274667;22;20407;-71
2024/01/22 09:13:34;;;;;;;12.52;6.05;;;;;;;-1.73;51.69;101389.34;6275634;22;20049;-72
2024/01/22 09:15:59;;;;;;;10.27;5.70;;;;;;;-1.88;51.46;101371.91;6274890;22;20008;-67
2024/01/22 09:18:26;;;;;;;12.70;6.60;;;;;;;-1.97;52.00;101371.94;6276021;22;20000;-66
2024/01/22 09:20:52;;;;;;;11.98;6.55;;;;;;;-2.12;51.68;101372.88;6276168;22;20004;-65
2024/01/22 09:23:18;;;;;;;14.43;6.10;;;;;;;-2.26;52.15;101366.81;6274991;22;20004;-66
2024/01/22 09:25:44;;;;;;;12.60;5.70;;;;;;;-2.32;52.35;101376.41;6276391;22;20037;-76
2024/01/22 09:28:10;;;;;;;11.80;6.28;;;;;;;-2.32;53.08;101380.81;6275501;22;20351;-71
2024/01/22 09:30:36;;;;;;;15.30;6.57;;;;;;;-2.31;53.00;101380.78;6275823;22;20007;-70
2024/01/22 09:33:04;;;;;;;15.10;6.78;;;;;;;-2.26;53.21;101380.78;6274286;22;20069;-72
2024/01/22 09:35:30;;;;;;;13.45;6.18;;;;;;;-2.11;52.60;101374.59;6274795;22;20000;-72
2024/01/22 09:37:56;;;;;;;12.98;6.32;;;;;;;-2.02;52.77;101373.72;6273892;22;20090;-71
2024/01/22 09:40:25;;;;;;;11.30;5.90;;;;;;;-2.03;52.02;101351.84;6275893;22;19999;-68
2024/01/22 09:42:53;;;;;;;13.07;5.85;;;;;;;-1.97;52.04;101371.09;6274745;22;20023;-70
2024/01/22 09:45:19;;;;;;;11.88;5.68;;;;;;;-2.08;52.80;101337.84;6274161;22;20073;-69
2024/01/22 09:47:46;;;;;;;12.15;5.43;;;;;;;-1.92;51.80;101343.94;6275959;22;20266;-68
2024/01/22 09:50:12;;;;;;;10.55;5.55;;;;;;;-2.22;51.80;101293.31;6275529;22;20003;-71
2024/01/22 09:52:43;;;;;;;10.77;5.38;;;;;;;-1.90;51.77;101342.19;6275025;22;20007;-68
2024/01/22 09:55:09;;;;;;;9.98;5.18;;;;;;;-1.90;51.77;101331.69;6275274;22;20004;-72
2024/01/22 09:57:37;;;;;;;12.40;5.95;;;;;;;-1.82;51.92;101350.00;6248805;22;20008;-72
2024/01/22 10:00:04;;;;;;;11.40;5.32;;;;;;;-1.81;51.18;101338.66;6274809;22;20031;-71
2024/01/22 10:02:30;;;;;;;12.50;5.65;;;;;;;-1.79;51.66;101328.13;6273706;22;20416;-75
2024/01/22 10:04:58;;;;;;;10.27;5.28;;;;;;;-1.88;52.32;101327.28;6274720;22;20094;-71
2024/01/22 10:07:23;;;;;;;13.20;6.18;;;;;;;-1.94;51.37;101319.41;6274964;22;20046;-69
2024/01/22 10:09:49;;;;;;;10.77;6.00;;;;;;;-2.14;51.95;101326.53;6274195;22;20254;-67
2024/01/22 10:12:14;;;;;;;9.90;5.43;;;;;;;-2.48;52.91;101312.63;6274515;22;20023;-69
2024/01/22 10:14:42;;;;;;;11.60;5.78;;;;;;;-2.58;53.45;101325.75;6248363;22;20231;-65
2024/01/22 10:17:27;;;;;;;11.63;5.68;;;;;;;-2.69;53.89;101336.25;6275318;22;20006;-67
2024/01/22 10:19:54;;;;;;;;;;;;;;;-2.53;54.86;101335.38;6249517;22;20049;-65
2024/01/22 10:22:20;;;;;;;10.43;5.30;;;;;;;-2.98;54.31;101331.91;6248923;22;19964;-65
2024/01/22 10:24:59;;;;;;;12.27;5.47;;;;;;;-3.05;54.92;101342.41;6274134;22;20003;-64
2024/01/22 10:27:25;;;;;;;13.18;5.80;;;;;;;-3.26;54.95;101337.16;6274031;22;20003;-66
2024/01/22 10:29:50;;;;;;;12.75;6.10;;;;;;;-3.24;55.37;101332.78;6274820;22;20433;-68
2024/01/22 10:32:21;;;;;;;16.85;6.43;;;;;;;-3.22;55.48;101339.78;6246435;22;20095;-69
2024/01/22 10:34:50;;;;;;;14.02;6.63;;;;;;;-3.23;56.11;101339.78;6272264;22;20015;-66
2024/01/22 10:37:17;;;;;;;14.40;6.10;;;;;;;-3.35;55.97;101317.94;6272277;22;20090;-66
2024/01/22 10:39:44;;;;;;;15.13;5.95;;;;;;;-3.23;56.06;101338.03;6272553;22;20011;-68
2024/01/22 10:42:11;;;;;;;15.15;6.30;;;;;;;-3.27;56.58;101328.41;6271636;22;20416;-68
2024/01/22 10:44:38;;;;;;;13.35;6.35;;;;;;;-3.18;57.00;101324.94;6272713;22;20030;-66
2024/01/22 10:47:05;;;;;;;12.30;6.18;;;;;;;-3.14;55.99;101326.66;6274254;22;20079;-64
2024/01/22 10:49:32;;;;;;;12.15;5.72;;;;;;;-3.11;56.51;101320.56;6275294;22;20301;-64
2024/01/22 10:51:59;;;;;;;10.55;5.57;;;;;;;-3.09;56.28;101310.97;6273103;22;20000;-58
2024/01/22 10:54:32;;;;;;;10.32;5.55;;;;;;;-3.11;56.25;101321.47;6275245;22;20007;-64
2024/01/22 10:57:08;;;;;;;14.20;6.03;;;;;;;-3.04;56.41;101317.94;6274925;22;20300;-62
2024/01/22 10:59:38;;;;;;;14.43;6.40;;;;;;;-3.21;56.75;101289.13;6274525;22;20340;-63
2024/01/22 11:02:05;;;;;;;11.70;5.68;;;;;;;-3.09;56.30;101308.34;6274406;22;20008;-61
2024/01/22 11:04:42;;;;;;;11.63;5.85;;;;;;;-3.11;56.51;101284.78;6274339;22;20419;-63
2024/01/22 11:07:10;;;;;;;14.15;6.38;;;;;;;-3.08;57.05;101292.63;6274233;22;20011;-64
2024/01/22 11:09:36;;;;;;;12.85;6.63;;;;;;;-2.99;56.77;101296.09;6275110;22;19999;-63
2024/01/22 11:12:11;;;;;;;11.43;6.35;;;;;;;-3.00;56.82;101291.75;6248316;22;20027;-60
2024/01/22 11:14:38;;;;;;;11.60;6.15;;;;;;;-3.05;56.14;101303.09;6274541;22;20099;-65
2024/01/22 11:17:09;;;;;;;12.75;6.65;;;;;;;-3.08;56.29;101281.25;6274813;22;20292;-61